createdAt,value
2018-03-21T00:01:27.134Z,7.90
2018-03-21T00:03:55.757Z,10.68
2018-03-21T00:06:24.403Z,16.23
2018-03-21T00:08:52.958Z,9.23
2018-03-21T00:11:21.515Z,10.95
2018-03-21T00:13:50.029Z,11.48
2018-03-21T00:16:18.848Z,17.90
2018-03-21T00:18:47.487Z,42.30
2018-03-21T00:21:15.975Z,8.95
2018-03-21T00:23:44.567Z,14.70
2018-03-21T00:26:13.074Z,13.20
2018-03-21T00:28:41.630Z,18.83
2018-03-21T00:31:10.245Z,17.50
2018-03-21T00:33:39.030Z,9.15
2018-03-21T00:36:07.549Z,12.35
2018-03-21T00:38:36.056Z,11.55
2018-03-21T00:41:04.512Z,15.55
2018-03-21T00:43:33.198Z,21.10
2018-03-21T00:46:01.911Z,14.63
2018-03-21T00:48:30.395Z,18.50
2018-03-21T00:50:58.882Z,15.25
2018-03-21T00:53:27.528Z,12.70
2018-03-21T00:55:56.114Z,13.00
2018-03-21T00:58:24.780Z,13.65
2018-03-21T01:00:53.362Z,7.15
2018-03-21T01:03:21.831Z,7.68
2018-03-21T01:05:50.350Z,10.52
2018-03-21T01:08:18.937Z,11.43
2018-03-21T01:10:47.550Z,7.30
2018-03-21T01:13:16.281Z,7.87
2018-03-21T01:15:45.125Z,9.27
2018-03-21T01:18:14.470Z,9.88
2018-03-21T01:20:43.078Z,4.05
2018-03-21T01:23:11.617Z,6.97
2018-03-21T01:25:40.067Z,11.73
2018-03-21T01:28:09.603Z,7.40
2018-03-21T01:30:38.113Z,4.68
2018-03-21T01:33:06.640Z,7.43
2018-03-21T01:35:35.223Z,7.10
2018-03-21T01:38:03.947Z,10.95
2018-03-21T01:40:32.451Z,11.25
2018-03-21T01:43:01.997Z,9.82
2018-03-21T01:45:30.532Z,7.43
2018-03-21T01:47:59.014Z,5.87
2018-03-21T01:50:38.395Z,7.53
2018-03-21T01:53:10.900Z,6.85
2018-03-21T01:55:39.486Z,6.18
2018-03-21T01:58:07.968Z,7.55
2018-03-21T02:00:36.417Z,8.40
2018-03-21T02:03:04.994Z,4.55
2018-03-21T02:05:33.530Z,7.40
2018-03-21T02:08:01.946Z,3.72
2018-03-21T02:10:30.438Z,4.35
2018-03-21T02:12:59.055Z,2.62
2018-03-21T02:15:27.875Z,3.97
2018-03-21T02:17:56.414Z,11.48
2018-03-21T02:20:24.941Z,4.28
2018-03-21T02:22:53.383Z,5.62
2018-03-21T02:25:21.982Z,6.90
2018-03-21T02:27:50.488Z,3.90
2018-03-21T02:30:19.172Z,9.73
2018-03-21T02:32:47.793Z,7.97
2018-03-21T02:35:16.296Z,11.15
2018-03-21T02:37:44.828Z,3.30
2018-03-21T02:40:13.387Z,12.15
2018-03-21T02:42:41.830Z,4.80
2018-03-21T02:45:10.288Z,4.32
2018-03-21T02:47:38.787Z,6.37
2018-03-21T02:50:07.368Z,5.07
2018-03-21T02:52:36.091Z,4.87
2018-03-21T02:55:04.676Z,7.72
2018-03-21T02:57:33.251Z,4.43
2018-03-21T03:00:01.689Z,2.85
2018-03-21T03:02:30.301Z,3.85
2018-03-21T03:04:58.777Z,4.97
2018-03-21T03:07:27.242Z,6.30
2018-03-21T03:09:55.848Z,6.80
2018-03-21T03:12:24.555Z,3.47
2018-03-21T03:14:53.106Z,9.40
2018-03-21T03:17:21.895Z,4.10
2018-03-21T03:19:50.581Z,6.62
2018-03-21T03:22:20.131Z,7.15
2018-03-21T03:24:48.875Z,11.82
2018-03-21T03:27:17.400Z,6.53
2018-03-21T03:29:45.949Z,5.32
2018-03-21T03:32:14.471Z,3.30
2018-03-21T03:34:43.013Z,11.48
2018-03-21T03:37:11.432Z,11.12
2018-03-21T03:39:39.946Z,7.97
2018-03-21T03:42:08.464Z,5.93
2018-03-21T03:44:36.947Z,7.32
2018-03-21T03:47:05.625Z,6.50
2018-03-21T03:49:34.049Z,13.52
2018-03-21T03:52:02.569Z,5.22
2018-03-21T03:54:31.201Z,8.40
2018-03-21T03:56:59.776Z,6.25
2018-03-21T03:59:28.247Z,5.80
2018-03-21T04:01:57.746Z,20.05
2018-03-21T04:04:26.202Z,6.80
2018-03-21T04:06:54.683Z,3.97
2018-03-21T04:09:23.300Z,18.58
2018-03-21T04:11:51.844Z,6.00
2018-03-21T04:14:24.474Z,13.00
2018-03-21T04:16:53.047Z,4.28
2018-03-21T04:19:21.735Z,8.38
2018-03-21T04:21:50.533Z,9.70
2018-03-21T04:24:19.410Z,5.03
2018-03-21T04:26:48.011Z,13.02
2018-03-21T04:29:16.618Z,7.45
2018-03-21T04:31:45.194Z,7.43
2018-03-21T04:34:13.885Z,8.65
2018-03-21T04:36:42.572Z,5.35
2018-03-21T04:39:11.130Z,8.38
2018-03-21T04:41:39.855Z,16.08
2018-03-21T04:44:08.395Z,8.43
2018-03-21T04:46:36.979Z,11.27
2018-03-21T04:49:05.538Z,12.13
2018-03-21T04:51:34.059Z,9.48
2018-03-21T04:54:02.609Z,10.70
2018-03-21T04:56:31.080Z,7.60
2018-03-21T04:58:59.670Z,5.35
2018-03-21T05:01:28.192Z,10.32
2018-03-21T05:03:56.876Z,6.25
2018-03-21T05:06:25.441Z,8.10
2018-03-21T05:08:53.939Z,10.88
2018-03-21T05:11:22.423Z,7.80
2018-03-21T05:13:51.162Z,8.43
2018-03-21T05:16:20.055Z,8.77
2018-03-21T05:18:48.757Z,5.05
2018-03-21T05:21:17.763Z,7.90
2018-03-21T05:23:46.321Z,10.77
2018-03-21T05:26:15.075Z,10.40
2018-03-21T05:28:44.171Z,5.95
2018-03-21T05:31:12.932Z,4.15
2018-03-21T05:33:41.594Z,4.30
2018-03-21T05:36:10.156Z,6.45
2018-03-21T05:38:38.945Z,8.80
2018-03-21T05:41:07.527Z,7.10
2018-03-21T05:43:36.100Z,7.82
2018-03-21T05:46:05.341Z,9.30
2018-03-21T05:48:34.717Z,4.03
2018-03-21T05:51:03.498Z,10.18
2018-03-21T05:53:32.109Z,7.75
2018-03-21T05:56:00.575Z,13.13
2018-03-21T05:58:29.152Z,6.50
2018-03-21T06:00:57.758Z,6.78
2018-03-21T06:03:26.318Z,10.70
2018-03-21T06:05:54.906Z,14.35
2018-03-21T06:08:23.490Z,6.47
2018-03-21T06:10:51.972Z,9.77
2018-03-21T06:13:20.658Z,6.90
2018-03-21T06:15:49.253Z,5.70
2018-03-21T06:18:17.826Z,18.35
2018-03-21T06:20:46.554Z,18.40
2018-03-21T06:23:15.151Z,14.02
2018-03-21T06:25:43.759Z,11.15
2018-03-21T06:28:14.412Z,5.10
2018-03-21T06:30:43.044Z,14.05
2018-03-21T06:33:11.477Z,9.07
2018-03-21T06:35:40.097Z,15.25
2018-03-21T06:38:09.023Z,6.32
2018-03-21T06:40:45.113Z,8.32
2018-03-21T06:43:13.740Z,7.05
2018-03-21T06:45:42.501Z,6.82
2018-03-21T06:48:11.067Z,5.53
2018-03-21T06:50:40.411Z,7.10
2018-03-21T06:53:08.968Z,29.10
2018-03-21T06:55:37.642Z,11.70
2018-03-21T06:58:06.134Z,20.20
2018-03-21T07:00:34.704Z,6.18
2018-03-21T07:03:03.419Z,4.50
2018-03-21T07:05:31.889Z,9.88
2018-03-21T07:08:00.365Z,13.45
2018-03-21T07:10:28.989Z,7.68
2018-03-21T07:12:57.535Z,5.82
2018-03-21T07:15:37.793Z,3.58
2018-03-21T07:18:14.203Z,6.35
2018-03-21T07:20:42.855Z,7.12
2018-03-21T07:23:11.422Z,2.90
2018-03-21T07:25:39.996Z,6.45
2018-03-21T07:28:08.784Z,4.22
2018-03-21T07:30:37.236Z,5.37
2018-03-21T07:33:05.706Z,8.55
2018-03-21T07:35:34.401Z,10.60
2018-03-21T07:38:02.922Z,7.25
2018-03-21T07:40:31.568Z,13.00
2018-03-21T07:43:00.113Z,4.85
2018-03-21T07:45:28.973Z,9.98
2018-03-21T07:47:57.502Z,4.20
2018-03-21T07:50:26.014Z,13.52
2018-03-21T07:52:54.548Z,5.65
2018-03-21T07:55:23.102Z,26.17
2018-03-21T07:57:51.687Z,10.57
2018-03-21T08:00:20.317Z,8.70
2018-03-21T08:02:48.980Z,10.88
2018-03-21T08:05:17.876Z,10.10
2018-03-21T08:07:46.634Z,16.30
2018-03-21T08:10:15.333Z,12.32
2018-03-21T08:12:44.512Z,13.88
2018-03-21T08:15:13.099Z,8.32
2018-03-21T08:17:41.650Z,11.52
2018-03-21T08:20:10.273Z,12.43
2018-03-21T08:22:38.768Z,3.75
2018-03-21T08:25:07.293Z,8.35
2018-03-21T08:27:35.914Z,12.32
2018-03-21T08:30:04.476Z,17.33
2018-03-21T08:32:33.021Z,9.20
2018-03-21T08:35:01.563Z,14.40
2018-03-21T08:37:30.142Z,10.00
2018-03-21T08:39:58.832Z,9.82
2018-03-21T08:42:27.414Z,7.28
2018-03-21T08:44:56.033Z,9.57
2018-03-21T08:47:24.796Z,16.33
2018-03-21T08:49:53.577Z,12.13
2018-03-21T08:52:22.310Z,26.80
2018-03-21T08:54:50.980Z,5.50
2018-03-21T08:57:20.051Z,5.57
2018-03-21T08:59:48.746Z,10.15
2018-03-21T09:02:17.288Z,5.53
2018-03-21T09:04:46.008Z,8.38
2018-03-21T09:07:14.612Z,11.18
2018-03-21T09:09:44.045Z,8.63
2018-03-21T09:12:13.800Z,10.60
2018-03-21T09:14:42.313Z,11.12
2018-03-21T09:17:10.871Z,14.87
2018-03-21T09:19:39.392Z,11.75
2018-03-21T09:22:08.062Z,17.05
2018-03-21T09:24:37.458Z,11.50
2018-03-21T09:27:06.864Z,13.38
2018-03-21T09:29:35.427Z,20.02
2018-03-21T09:32:04.645Z,10.48
2018-03-21T09:34:33.248Z,8.85
2018-03-21T09:37:01.898Z,16.73
2018-03-21T09:39:31.499Z,14.15
2018-03-21T09:42:00.520Z,13.75
2018-03-21T09:44:29.140Z,20.30
2018-03-21T09:46:57.755Z,14.87
2018-03-21T09:49:26.820Z,8.55
2018-03-21T09:51:55.648Z,22.98
2018-03-21T09:54:25.026Z,15.23
2018-03-21T09:56:57.756Z,9.57
2018-03-21T09:59:26.272Z,22.15
2018-03-21T10:01:54.877Z,13.23
2018-03-21T10:04:23.750Z,23.15
2018-03-21T10:06:52.333Z,19.83
2018-03-21T10:09:20.837Z,13.25
2018-03-21T10:11:49.418Z,32.28
2018-03-21T10:14:18.137Z,17.15
2018-03-21T10:16:46.661Z,17.80
2018-03-21T10:19:15.552Z,17.30
2018-03-21T10:21:44.293Z,16.45
2018-03-21T10:24:13.130Z,11.68
2018-03-21T10:26:41.919Z,25.65
2018-03-21T10:29:10.388Z,25.60
2018-03-21T10:31:39.004Z,31.77
2018-03-21T10:34:07.506Z,10.70
2018-03-21T10:36:35.993Z,14.23
2018-03-21T10:39:04.518Z,9.05
2018-03-21T10:41:33.031Z,12.35
2018-03-21T10:44:01.593Z,21.02
2018-03-21T10:46:30.175Z,27.02
2018-03-21T10:48:58.656Z,27.02
2018-03-21T10:51:27.084Z,16.58
2018-03-21T10:53:55.802Z,20.52
2018-03-21T10:56:25.534Z,21.52
2018-03-21T10:58:54.120Z,19.48
2018-03-21T11:01:28.165Z,14.20
2018-03-21T11:03:56.658Z,17.45
2018-03-21T11:06:25.319Z,28.00
2018-03-21T11:08:54.110Z,23.35
2018-03-21T11:11:22.857Z,20.35
2018-03-21T11:13:51.562Z,24.20
2018-03-21T11:16:20.273Z,15.02
2018-03-21T11:18:49.055Z,10.88
2018-03-21T11:21:17.742Z,14.23
2018-03-21T11:23:46.431Z,21.90
2018-03-21T11:26:15.289Z,22.35
2018-03-21T11:28:44.033Z,12.70
2018-03-21T11:31:12.648Z,20.90
2018-03-21T11:33:41.214Z,21.23
2018-03-21T11:36:09.887Z,11.50
2018-03-21T11:38:38.521Z,14.13
2018-03-21T11:41:07.052Z,8.73
2018-03-21T11:43:35.628Z,16.02
2018-03-21T11:46:04.109Z,13.62
2018-03-21T11:48:32.889Z,20.65
2018-03-21T11:51:01.369Z,18.95
2018-03-21T11:53:30.291Z,15.38
2018-03-21T11:55:59.170Z,12.90
2018-03-21T11:58:27.887Z,12.90
2018-03-21T12:00:56.934Z,22.50
2018-03-21T12:03:25.712Z,25.33
2018-03-21T12:05:54.374Z,21.00
2018-03-21T12:08:23.012Z,12.13
2018-03-21T12:10:51.672Z,21.33
2018-03-21T12:13:21.209Z,11.27
2018-03-21T12:15:50.038Z,29.63
2018-03-21T12:18:18.956Z,21.52
2018-03-21T12:20:47.704Z,19.80
2018-03-21T12:23:16.713Z,16.95
2018-03-21T12:25:45.660Z,12.57
2018-03-21T12:28:14.343Z,12.02
2018-03-21T12:30:43.571Z,14.65
2018-03-21T12:33:12.208Z,8.32
2018-03-21T12:35:40.864Z,18.80
2018-03-21T12:38:09.696Z,13.48
2018-03-21T12:40:38.208Z,12.07
2018-03-21T12:43:06.726Z,15.73
2018-03-21T12:45:35.265Z,11.43
2018-03-21T12:48:03.907Z,9.32
2018-03-21T12:50:32.489Z,11.25
2018-03-21T12:53:01.121Z,14.70
2018-03-21T12:55:29.655Z,10.80
2018-03-21T12:57:58.412Z,12.93
2018-03-21T13:00:26.958Z,20.77
2018-03-21T13:02:55.562Z,6.45
2018-03-21T13:05:24.313Z,14.48
2018-03-21T13:07:53.045Z,14.20
2018-03-21T13:10:21.538Z,14.15
2018-03-21T13:12:50.202Z,26.83
2018-03-21T13:15:19.446Z,9.13
2018-03-21T13:17:48.105Z,15.90
2018-03-21T13:20:16.855Z,18.50
2018-03-21T13:22:46.455Z,19.65
2018-03-21T13:25:15.803Z,10.55
2018-03-21T13:27:45.308Z,13.23
2018-03-21T13:30:14.098Z,16.37
2018-03-21T13:32:42.619Z,11.95
2018-03-21T13:35:11.136Z,18.15
2018-03-21T13:37:40.013Z,21.30
2018-03-21T13:40:08.800Z,15.20
2018-03-21T13:42:37.308Z,30.00
2018-03-21T13:45:05.890Z,12.50
2018-03-21T13:47:34.422Z,16.60
2018-03-21T13:50:03.031Z,20.05
2018-03-21T13:52:31.638Z,20.95
2018-03-21T13:55:00.308Z,19.42
2018-03-21T13:57:32.224Z,15.70
2018-03-21T14:00:02.241Z,14.75
2018-03-21T14:02:30.841Z,12.57
2018-03-21T14:04:59.637Z,19.27
2018-03-21T14:07:28.210Z,17.60
2018-03-21T14:09:56.802Z,14.23
2018-03-21T14:12:25.482Z,14.40
2018-03-21T14:14:54.168Z,9.23
2018-03-21T14:17:22.998Z,14.75
2018-03-21T14:19:52.399Z,11.25
2018-03-21T14:22:21.115Z,15.05
2018-03-21T14:24:49.772Z,20.15
2018-03-21T14:27:18.867Z,14.65
2018-03-21T14:29:47.556Z,22.48
2018-03-21T14:32:16.090Z,10.60
2018-03-21T14:34:44.942Z,16.40
2018-03-21T14:37:14.269Z,22.02
2018-03-21T14:39:42.829Z,18.67
2018-03-21T14:42:11.495Z,7.18
2018-03-21T14:44:40.138Z,8.65
2018-03-21T14:47:08.664Z,25.73
2018-03-21T14:49:37.487Z,14.02
2018-03-21T14:52:06.406Z,14.95
2018-03-21T14:54:34.921Z,17.17
2018-03-21T14:57:03.421Z,20.55
2018-03-21T14:59:32.242Z,17.73
2018-03-21T15:02:00.678Z,14.15
2018-03-21T15:04:29.255Z,20.98
2018-03-21T15:06:57.850Z,25.08
2018-03-21T15:09:26.480Z,18.48
2018-03-21T15:11:55.208Z,13.77
2018-03-21T15:14:24.032Z,21.23
2018-03-21T15:16:52.717Z,19.25
2018-03-21T15:19:21.527Z,15.82
2018-03-21T15:21:50.174Z,25.08
2018-03-21T15:24:18.945Z,21.08
2018-03-21T15:26:47.686Z,17.62
2018-03-21T15:29:16.292Z,19.33
2018-03-21T15:31:44.908Z,10.65
2018-03-21T15:34:13.452Z,10.18
2018-03-21T15:36:42.227Z,19.83
2018-03-21T15:39:11.338Z,10.88
2018-03-21T15:41:41.841Z,23.60
2018-03-21T15:44:15.055Z,24.73
2018-03-21T15:49:36.639Z,20.00
2018-03-21T15:52:05.206Z,14.40
2018-03-21T15:54:33.674Z,16.42
2018-03-21T15:57:02.225Z,18.52
2018-03-21T15:59:30.783Z,18.33
2018-03-21T16:01:59.359Z,19.45
2018-03-21T16:04:28.607Z,31.48
2018-03-21T16:06:57.590Z,29.75
2018-03-21T16:09:26.594Z,20.35
2018-03-21T16:11:55.846Z,18.27
2018-03-21T16:14:24.538Z,17.08
2018-03-21T16:16:53.493Z,29.42
2018-03-21T16:19:23.191Z,20.83
2018-03-21T16:21:51.812Z,13.70
2018-03-21T16:24:20.871Z,14.80
2018-03-21T16:26:49.685Z,14.90
2018-03-21T16:29:18.784Z,22.13
2018-03-21T16:31:47.871Z,16.30
2018-03-21T16:34:16.883Z,27.55
2018-03-21T16:36:45.718Z,15.88
2018-03-21T16:39:14.620Z,19.83
2018-03-21T16:41:43.298Z,11.30
2018-03-21T16:44:11.818Z,11.93
2018-03-21T16:46:40.565Z,14.48
2018-03-21T16:49:09.139Z,16.67
2018-03-21T16:51:37.635Z,24.12
2018-03-21T16:54:06.156Z,20.12
2018-03-21T16:56:34.759Z,17.70
2018-03-21T16:59:03.348Z,25.77
2018-03-21T17:01:31.933Z,18.87
2018-03-21T17:04:00.688Z,18.67
2018-03-21T17:06:29.334Z,28.60
2018-03-21T17:08:57.944Z,23.62
2018-03-21T17:11:27.064Z,14.48
2018-03-21T17:13:55.769Z,19.37
2018-03-21T17:16:25.515Z,21.50
2018-03-21T17:18:54.230Z,20.62
2018-03-21T17:21:23.235Z,33.55
2018-03-21T17:23:51.813Z,23.12
2018-03-21T17:26:20.456Z,18.20
2018-03-21T17:28:49.095Z,13.75
2018-03-21T17:31:17.658Z,26.23
2018-03-21T17:33:48.688Z,13.02
2018-03-21T17:36:17.190Z,27.92
2018-03-21T17:38:45.979Z,19.70
2018-03-21T17:41:14.824Z,14.35
2018-03-21T17:43:43.620Z,20.73
2018-03-21T17:46:12.458Z,27.10
2018-03-21T17:48:41.030Z,20.52
2018-03-21T17:51:24.739Z,27.83
2018-03-21T17:54:00.692Z,24.10
2018-03-21T17:56:31.969Z,16.10
2018-03-21T17:59:00.607Z,8.90
2018-03-21T18:01:29.391Z,17.85
2018-03-21T18:03:58.205Z,12.93
2018-03-21T18:06:26.996Z,27.77
2018-03-21T18:08:55.621Z,18.45
2018-03-21T18:11:24.102Z,21.45
2018-03-21T18:13:52.700Z,18.50
2018-03-21T18:16:21.377Z,23.87
2018-03-21T18:18:49.978Z,22.90
2018-03-21T18:21:18.616Z,24.80
2018-03-21T18:23:47.478Z,24.23
2018-03-21T18:26:16.229Z,23.80
2018-03-21T18:28:44.849Z,20.35
2018-03-21T18:31:13.871Z,21.52
2018-03-21T18:33:42.351Z,17.92
2018-03-21T18:36:10.962Z,20.35
2018-03-21T18:38:41.852Z,20.58
2018-03-21T18:41:10.358Z,13.65
2018-03-21T18:43:38.972Z,15.15
2018-03-21T18:46:07.474Z,21.80
2018-03-21T18:48:36.167Z,22.25
2018-03-21T18:51:04.740Z,20.35
2018-03-21T18:53:33.265Z,41.22
2018-03-21T18:56:01.873Z,12.32
2018-03-21T18:58:30.703Z,25.15
2018-03-21T19:00:59.387Z,15.55
2018-03-21T19:03:28.283Z,16.20
2018-03-21T19:05:57.201Z,20.33
2018-03-21T19:08:25.962Z,39.03
2018-03-21T19:10:54.918Z,17.70
2018-03-21T19:13:23.743Z,12.07
2018-03-21T19:15:52.643Z,27.73
2018-03-21T19:18:21.463Z,15.73
2018-03-21T19:20:50.487Z,21.08
2018-03-21T19:23:19.662Z,19.58
2018-03-21T19:25:48.724Z,25.58
2018-03-21T19:28:17.308Z,31.30
2018-03-21T19:30:45.882Z,20.45
2018-03-21T19:33:14.634Z,20.52
2018-03-21T19:35:43.567Z,30.73
2018-03-21T19:38:12.082Z,19.70
2018-03-21T19:40:40.644Z,24.42
2018-03-21T19:43:09.108Z,24.35
2018-03-21T19:45:37.600Z,30.40
2018-03-21T19:48:06.267Z,33.22
2018-03-21T19:50:34.786Z,29.85
2018-03-21T19:53:03.282Z,25.62
2018-03-21T19:55:31.891Z,31.35
2018-03-21T19:58:00.637Z,28.75
2018-03-21T20:00:29.429Z,26.17
2018-03-21T20:02:58.007Z,34.97
2018-03-21T20:05:26.975Z,38.67
2018-03-21T20:07:56.158Z,32.40
2018-03-21T20:10:25.099Z,60.30
2018-03-21T20:12:54.089Z,39.28
2018-03-21T20:15:22.984Z,40.35
2018-03-21T20:17:51.929Z,43.20
2018-03-21T20:20:20.772Z,53.85
2018-03-21T20:22:49.527Z,41.13
2018-03-21T20:25:18.548Z,46.58
2018-03-21T20:27:47.722Z,32.00
2018-03-21T20:30:16.703Z,36.88
2018-03-21T20:32:45.739Z,47.05
2018-03-21T20:35:14.640Z,31.67
2018-03-21T20:37:43.269Z,41.63
2018-03-21T20:40:11.737Z,28.58
2018-03-21T20:42:40.899Z,37.40
2018-03-21T20:45:09.477Z,25.55
2018-03-21T20:47:38.658Z,19.12
2018-03-21T20:50:07.102Z,25.20
2018-03-21T20:52:35.617Z,19.15
2018-03-21T20:55:04.774Z,26.05
2018-03-21T20:57:33.576Z,18.60
2018-03-21T21:00:02.333Z,23.92
2018-03-21T21:02:30.937Z,33.40
2018-03-21T21:05:00.088Z,28.15
2018-03-21T21:07:28.710Z,14.15
2018-03-21T21:09:57.431Z,15.82
2018-03-21T21:12:26.513Z,12.85
2018-03-21T21:14:55.277Z,15.57
2018-03-21T21:17:24.191Z,11.38
2018-03-21T21:19:53.009Z,13.88
2018-03-21T21:22:21.810Z,14.65
2018-03-21T21:24:50.339Z,12.55
2018-03-21T21:27:19.167Z,12.15
2018-03-21T21:29:51.743Z,20.23
2018-03-21T21:32:20.326Z,13.07
2018-03-21T21:34:49.540Z,16.35
2018-03-21T21:37:18.626Z,14.93
2018-03-21T21:39:47.284Z,13.93
2018-03-21T21:42:16.099Z,17.50
2018-03-21T21:44:45.199Z,22.98
2018-03-21T21:47:13.982Z,14.00
2018-03-21T21:49:42.578Z,14.70
2018-03-21T21:52:11.244Z,19.42
2018-03-21T21:54:39.829Z,16.65
2018-03-21T21:57:08.351Z,14.93
2018-03-21T21:59:37.014Z,4.53
2018-03-21T22:02:05.477Z,9.27
2018-03-21T22:04:34.034Z,14.07
2018-03-21T22:07:03.743Z,16.90
2018-03-21T22:09:32.233Z,8.80
2018-03-21T22:12:01.023Z,15.20
2018-03-21T22:14:29.770Z,17.50
2018-03-21T22:16:58.405Z,16.12
2018-03-21T22:19:27.123Z,14.15
2018-03-21T22:21:55.852Z,8.00
2018-03-21T22:24:24.614Z,19.77
2018-03-21T22:26:53.534Z,9.00
2018-03-21T22:29:22.422Z,21.45
2018-03-21T22:31:51.454Z,12.48
2018-03-21T22:34:20.035Z,6.35
2018-03-21T22:36:49.645Z,9.75
2018-03-21T22:39:18.538Z,12.88
2018-03-21T22:41:47.198Z,17.35
2018-03-21T22:44:15.972Z,11.93
2018-03-21T22:46:45.168Z,14.40
2018-03-21T22:49:13.757Z,8.90
2018-03-21T22:51:42.639Z,14.73
2018-03-21T22:54:11.267Z,10.48
2018-03-21T22:56:39.915Z,10.20
2018-03-21T23:01:48.953Z,13.65
2018-03-21T23:04:18.071Z,8.45
2018-03-21T23:06:46.668Z,10.38
2018-03-21T23:09:15.699Z,11.82
2018-03-21T23:11:45.699Z,9.75
2018-03-21T23:14:14.351Z,5.32
2018-03-21T23:16:43.468Z,11.98
2018-03-21T23:19:11.985Z,9.15
2018-03-21T23:21:40.706Z,16.65
2018-03-21T23:24:09.285Z,9.57
2018-03-21T23:26:37.820Z,7.68
2018-03-21T23:29:06.353Z,11.10
2018-03-21T23:31:34.993Z,16.55
2018-03-21T23:34:04.133Z,10.98
2018-03-21T23:36:32.726Z,12.65
2018-03-21T23:39:01.618Z,18.58
2018-03-21T23:41:30.217Z,19.92
2018-03-21T23:43:58.896Z,17.62
2018-03-21T23:46:27.490Z,14.10
2018-03-21T23:48:56.254Z,7.68
2018-03-21T23:51:25.075Z,6.80
2018-03-21T23:53:53.824Z,16.75
2018-03-21T23:56:22.509Z,8.52
2018-03-21T23:58:51.091Z,17.87
